createdAt,value
2018-10-18T00:00:00.637Z,10.78
2018-10-18T00:02:32.966Z,10.88
2018-10-18T00:05:06.956Z,10.81
2018-10-18T00:07:39.377Z,10.81
2018-10-18T00:10:11.710Z,10.81
2018-10-18T00:12:43.991Z,10.86
2018-10-18T00:15:16.270Z,10.80
2018-10-18T00:17:48.552Z,10.85
2018-10-18T00:20:20.792Z,10.80
2018-10-18T00:22:53.067Z,10.79
2018-10-18T00:25:25.283Z,10.85
2018-10-18T00:27:57.580Z,10.93
2018-10-18T00:30:29.830Z,10.92
2018-10-18T00:33:02.126Z,10.95
2018-10-18T00:35:34.493Z,10.92
2018-10-18T00:38:07.505Z,10.92
2018-10-18T00:40:39.705Z,10.97
2018-10-18T00:43:12.222Z,10.96
2018-10-18T00:45:44.553Z,10.95
2018-10-18T00:48:16.991Z,10.89
2018-10-18T00:50:49.160Z,10.91
2018-10-18T00:53:21.505Z,10.98
2018-10-18T00:55:53.786Z,10.94
2018-10-18T00:58:26.049Z,10.90
2018-10-18T01:00:58.397Z,10.83
2018-10-18T01:03:30.848Z,10.83
2018-10-18T01:06:03.404Z,10.86
2018-10-18T01:08:35.901Z,10.81
2018-10-18T01:11:08.184Z,10.83
2018-10-18T01:13:40.473Z,10.77
2018-10-18T01:16:12.748Z,10.73
2018-10-18T01:18:45.069Z,10.68
2018-10-18T01:21:17.593Z,10.65
2018-10-18T01:23:49.861Z,10.59
2018-10-18T01:26:22.202Z,10.55
2018-10-18T01:28:54.518Z,10.59
2018-10-18T01:31:26.816Z,10.59
2018-10-18T01:33:59.095Z,10.60
2018-10-18T01:36:31.390Z,10.54
2018-10-18T01:39:04.305Z,10.53
2018-10-18T01:41:36.860Z,10.43
2018-10-18T01:44:09.409Z,10.33
2018-10-18T01:46:41.638Z,10.32
2018-10-18T01:49:13.893Z,10.29
2018-10-18T01:51:46.168Z,10.32
2018-10-18T01:54:18.488Z,10.25
2018-10-18T01:56:50.929Z,10.22
2018-10-18T01:59:23.181Z,10.10
2018-10-18T02:01:55.464Z,10.08
2018-10-18T02:04:27.785Z,10.05
2018-10-18T02:07:00.046Z,10.07
2018-10-18T02:09:32.294Z,10.03
2018-10-18T02:12:05.295Z,10.02
2018-10-18T02:14:37.797Z,9.96
2018-10-18T02:17:10.189Z,10.01
2018-10-18T02:19:42.551Z,10.00
2018-10-18T02:22:14.823Z,10.05
2018-10-18T02:24:47.096Z,10.04
2018-10-18T02:27:19.477Z,10.01
2018-10-18T02:29:51.725Z,10.02
2018-10-18T02:32:24.024Z,10.00
2018-10-18T02:34:56.338Z,9.98
2018-10-18T02:37:28.685Z,9.93
2018-10-18T02:40:01.166Z,9.84
2018-10-18T02:42:33.601Z,9.87
2018-10-18T02:45:05.981Z,9.92
2018-10-18T02:47:38.257Z,9.85
2018-10-18T02:50:10.554Z,9.87
2018-10-18T02:52:42.833Z,9.84
2018-10-18T02:55:15.129Z,9.84
2018-10-18T02:57:47.441Z,9.75
2018-10-18T03:00:19.737Z,9.70
2018-10-18T03:02:52.069Z,9.74
2018-10-18T03:05:24.379Z,9.62
2018-10-18T03:07:56.686Z,9.64
2018-10-18T03:10:29.136Z,9.60
2018-10-18T03:13:01.586Z,9.68
2018-10-18T03:15:33.933Z,9.73
2018-10-18T03:18:06.553Z,9.74
2018-10-18T03:20:38.843Z,9.61
2018-10-18T03:23:11.201Z,9.58
2018-10-18T03:25:43.501Z,9.59
2018-10-18T03:28:15.748Z,9.62
2018-10-18T03:30:47.999Z,9.61
2018-10-18T03:33:20.239Z,9.59
2018-10-18T03:35:52.499Z,9.56
2018-10-18T03:38:24.883Z,9.46
2018-10-18T03:40:57.250Z,9.47
2018-10-18T03:43:29.525Z,9.47
2018-10-18T03:46:01.818Z,9.42
2018-10-18T03:48:34.186Z,9.43
2018-10-18T03:51:06.629Z,9.43
2018-10-18T03:53:38.874Z,9.32
2018-10-18T03:56:11.301Z,9.43
2018-10-18T03:58:43.613Z,9.40
2018-10-18T04:01:15.872Z,9.41
2018-10-18T04:03:48.133Z,9.37
2018-10-18T04:06:20.513Z,9.32
2018-10-18T04:08:52.791Z,9.34
2018-10-18T04:11:25.068Z,9.29
2018-10-18T04:13:57.402Z,9.37
2018-10-18T04:16:29.713Z,9.42
2018-10-18T04:19:02.079Z,9.40
2018-10-18T04:21:34.392Z,9.39
2018-10-18T04:24:06.756Z,9.48
2018-10-18T04:26:38.915Z,9.54
2018-10-18T04:29:11.540Z,9.50
2018-10-18T04:31:43.804Z,9.55
2018-10-18T04:34:16.165Z,9.54
2018-10-18T04:36:48.510Z,9.47
2018-10-18T04:39:20.781Z,9.46
2018-10-18T04:41:53.240Z,9.47
2018-10-18T04:44:25.686Z,9.47
2018-10-18T04:46:57.923Z,9.44
2018-10-18T04:49:30.263Z,9.45
2018-10-18T04:52:02.589Z,9.46
2018-10-18T04:54:34.890Z,9.43
2018-10-18T04:57:07.480Z,9.46
2018-10-18T04:59:39.744Z,9.44
2018-10-18T05:02:12.018Z,9.42
2018-10-18T05:04:55.713Z,9.45
2018-10-18T05:07:27.907Z,9.37
2018-10-18T05:10:00.199Z,9.33
2018-10-18T05:12:32.487Z,9.26
2018-10-18T05:15:06.377Z,9.32
2018-10-18T05:17:45.363Z,9.30
2018-10-18T05:20:17.874Z,9.31
2018-10-18T05:22:50.122Z,9.39
2018-10-18T05:25:22.503Z,9.32
2018-10-18T05:27:54.815Z,9.25
2018-10-18T05:30:27.153Z,9.20
2018-10-18T05:32:59.461Z,9.20
2018-10-18T05:35:31.699Z,9.22
2018-10-18T05:38:04.509Z,9.19
2018-10-18T05:40:36.761Z,9.21
2018-10-18T05:43:09.090Z,9.24
2018-10-18T05:45:41.393Z,9.21
2018-10-18T05:48:13.832Z,9.22
2018-10-18T05:50:46.193Z,9.23
2018-10-18T05:53:18.717Z,9.30
2018-10-18T05:55:50.932Z,9.28
2018-10-18T05:58:23.261Z,9.24
2018-10-18T06:00:55.643Z,9.29
2018-10-18T06:03:27.933Z,9.38
2018-10-18T06:06:00.309Z,9.40
2018-10-18T06:08:32.598Z,9.43
2018-10-18T06:11:30.065Z,9.53
2018-10-18T06:14:02.498Z,9.46
2018-10-18T06:16:34.882Z,9.48
2018-10-18T06:19:07.232Z,9.41
2018-10-18T06:21:39.506Z,9.44
2018-10-18T06:24:11.826Z,9.38
2018-10-18T06:26:44.106Z,9.46
2018-10-18T06:29:16.597Z,9.57
2018-10-18T06:31:48.990Z,9.67
2018-10-18T06:34:21.238Z,9.79
2018-10-18T06:36:53.548Z,10.07
2018-10-18T06:39:25.820Z,10.22
2018-10-18T06:41:58.902Z,10.38
2018-10-18T06:44:31.198Z,10.56
2018-10-18T06:47:03.814Z,10.76
2018-10-18T06:49:36.196Z,10.89
2018-10-18T06:52:08.457Z,11.07
2018-10-18T06:54:40.760Z,11.15
2018-10-18T06:57:13.195Z,11.25
2018-10-18T06:59:45.528Z,11.35
2018-10-18T07:02:17.790Z,11.39
2018-10-18T07:04:50.043Z,11.42
2018-10-18T07:07:22.378Z,11.49
2018-10-18T07:09:54.626Z,11.52
2018-10-18T07:12:26.957Z,11.68
2018-10-18T07:14:59.217Z,11.78
2018-10-18T07:17:31.610Z,11.90
2018-10-18T07:20:04.261Z,11.92
2018-10-18T07:22:37.573Z,12.08
2018-10-18T07:25:11.328Z,12.16
2018-10-18T07:27:43.761Z,12.24
2018-10-18T07:30:16.282Z,12.31
2018-10-18T07:32:48.480Z,12.34
2018-10-18T07:35:20.757Z,12.42
2018-10-18T07:37:53.094Z,12.38
2018-10-18T07:40:25.456Z,12.48
2018-10-18T07:42:57.774Z,12.50
2018-10-18T07:45:30.069Z,12.69
2018-10-18T07:48:02.474Z,12.71
2018-10-18T07:50:34.714Z,12.82
2018-10-18T07:53:07.097Z,12.92
2018-10-18T07:55:39.371Z,13.01
2018-10-18T07:58:11.703Z,13.26
2018-10-18T08:00:44.123Z,13.57
2018-10-18T08:03:16.361Z,13.77
2018-10-18T08:05:48.718Z,14.02
2018-10-18T08:08:21.021Z,14.09
2018-10-18T08:10:53.330Z,14.12
2018-10-18T08:13:25.641Z,14.07
2018-10-18T08:15:58.017Z,14.18
2018-10-18T08:18:30.384Z,14.29
2018-10-18T08:21:02.788Z,14.37
2018-10-18T08:23:35.078Z,14.56
2018-10-18T08:26:07.488Z,14.82
2018-10-18T08:28:39.803Z,15.17
2018-10-18T08:31:12.239Z,15.35
2018-10-18T08:33:44.414Z,15.37
2018-10-18T08:36:16.805Z,15.40
2018-10-18T08:38:49.103Z,15.45
2018-10-18T08:41:21.401Z,15.53
2018-10-18T08:43:53.736Z,15.69
2018-10-18T08:46:26.329Z,15.80
2018-10-18T08:48:58.638Z,15.91
2018-10-18T08:51:31.345Z,16.17
2018-10-18T08:54:03.632Z,16.44
2018-10-18T08:56:35.948Z,16.63
2018-10-18T08:59:08.292Z,16.64
2018-10-18T09:01:40.598Z,16.65
2018-10-18T09:04:12.922Z,16.79
2018-10-18T09:06:45.200Z,16.98
2018-10-18T09:09:17.766Z,16.93
2018-10-18T09:11:49.878Z,17.09
2018-10-18T09:14:22.179Z,17.16
2018-10-18T09:16:54.490Z,17.28
2018-10-18T09:19:26.737Z,17.29
2018-10-18T09:21:59.029Z,17.32
2018-10-18T09:24:31.309Z,17.43
2018-10-18T09:27:03.636Z,17.45
2018-10-18T09:29:35.949Z,17.47
2018-10-18T09:32:08.557Z,17.77
2018-10-18T09:34:40.839Z,17.86
2018-10-18T09:37:13.222Z,17.98
2018-10-18T09:39:45.442Z,17.96
2018-10-18T09:42:17.714Z,18.22
2018-10-18T09:44:50.170Z,18.33
2018-10-18T09:47:22.430Z,18.68
2018-10-18T09:49:54.733Z,18.74
2018-10-18T09:52:27.049Z,18.70
2018-10-18T09:54:59.360Z,18.69
2018-10-18T09:57:31.618Z,18.85
2018-10-18T10:00:04.265Z,18.83
2018-10-18T10:02:42.069Z,18.72
2018-10-18T10:05:14.369Z,18.88
2018-10-18T10:07:46.630Z,18.93
2018-10-18T10:10:19.022Z,19.00
2018-10-18T10:12:51.308Z,19.16
2018-10-18T10:15:23.805Z,19.24
2018-10-18T10:17:56.114Z,19.27
2018-10-18T10:20:28.433Z,19.46
2018-10-18T10:23:00.797Z,19.63
2018-10-18T10:25:33.085Z,19.67
2018-10-18T10:28:05.417Z,19.76
2018-10-18T10:30:37.748Z,19.82
2018-10-18T10:33:10.101Z,20.04
2018-10-18T10:35:42.450Z,20.07
2018-10-18T10:38:14.797Z,20.08
2018-10-18T10:40:47.121Z,20.20
2018-10-18T10:43:19.485Z,20.24
2018-10-18T10:45:51.939Z,20.26
2018-10-18T10:48:24.113Z,20.31
2018-10-18T10:50:56.433Z,20.57
2018-10-18T10:53:28.675Z,20.81
2018-10-18T10:56:01.049Z,20.89
2018-10-18T10:58:33.537Z,20.84
2018-10-18T11:01:25.147Z,20.96
2018-10-18T11:03:58.907Z,20.93
2018-10-18T11:06:31.180Z,20.99
2018-10-18T11:09:04.772Z,20.98
2018-10-18T11:11:37.189Z,20.94
2018-10-18T11:14:09.503Z,21.00
2018-10-18T11:16:41.782Z,21.21
2018-10-18T11:19:14.078Z,21.30
2018-10-18T11:21:46.397Z,21.34
2018-10-18T11:24:18.864Z,21.40
2018-10-18T11:26:51.316Z,21.42
2018-10-18T11:29:23.776Z,21.45
2018-10-18T11:31:56.087Z,21.47
2018-10-18T11:34:28.406Z,21.48
2018-10-18T11:37:00.782Z,21.51
2018-10-18T11:39:33.105Z,21.57
2018-10-18T11:42:05.735Z,21.59
2018-10-18T11:44:40.014Z,21.61
2018-10-18T11:47:12.313Z,21.65
2018-10-18T11:49:44.605Z,21.78
2018-10-18T11:52:16.940Z,21.83
2018-10-18T11:54:49.251Z,21.72
2018-10-18T11:57:21.519Z,21.61
2018-10-18T11:59:53.883Z,21.52
2018-10-18T12:02:26.222Z,21.59
2018-10-18T12:04:58.515Z,21.87
2018-10-18T12:07:30.903Z,21.85
2018-10-18T12:10:03.257Z,21.73
2018-10-18T12:12:35.743Z,21.89
2018-10-18T12:15:10.391Z,21.80
2018-10-18T12:17:42.820Z,21.71
2018-10-18T12:20:16.482Z,21.82
2018-10-18T12:22:48.718Z,21.78
2018-10-18T12:25:20.980Z,21.78
2018-10-18T12:27:53.335Z,21.80
2018-10-18T12:30:25.625Z,22.04
2018-10-18T12:32:57.962Z,21.99
2018-10-18T12:35:30.457Z,21.96
2018-10-18T12:38:02.757Z,21.97
2018-10-18T12:40:35.291Z,22.11
2018-10-18T12:43:07.445Z,21.97
2018-10-18T12:45:39.729Z,21.99
2018-10-18T12:48:12.085Z,22.02
2018-10-18T12:50:44.490Z,22.05
2018-10-18T12:53:16.742Z,21.96
2018-10-18T12:55:49.072Z,21.98
2018-10-18T12:58:21.414Z,22.13
2018-10-18T13:00:53.698Z,22.10
2018-10-18T13:03:26.136Z,22.02
2018-10-18T13:05:58.402Z,22.14
2018-10-18T13:08:30.670Z,22.14
2018-10-18T13:11:03.237Z,22.03
2018-10-18T13:13:36.525Z,22.14
2018-10-18T13:16:08.787Z,22.08
2018-10-18T13:18:41.194Z,22.09
2018-10-18T13:21:13.831Z,22.30
2018-10-18T13:23:46.191Z,22.19
2018-10-18T13:26:18.629Z,22.14
2018-10-18T13:28:50.923Z,22.08
2018-10-18T13:31:23.549Z,22.14
2018-10-18T13:33:55.990Z,22.12
2018-10-18T13:36:29.474Z,22.01
2018-10-18T13:39:01.943Z,22.16
2018-10-18T13:41:34.254Z,22.33
2018-10-18T13:44:07.133Z,22.27
2018-10-18T13:46:39.886Z,22.21
2018-10-18T13:49:12.210Z,22.10
2018-10-18T13:51:44.658Z,22.03
2018-10-18T13:54:17.076Z,22.08
2018-10-18T13:56:49.391Z,22.11
2018-10-18T13:59:33.144Z,22.04
2018-10-18T14:02:05.394Z,22.01
2018-10-18T14:04:37.866Z,22.02
2018-10-18T14:07:10.258Z,22.05
2018-10-18T14:09:42.542Z,21.99
2018-10-18T14:12:14.965Z,21.91
2018-10-18T14:14:47.289Z,21.95
2018-10-18T14:17:19.739Z,21.96
2018-10-18T14:19:52.013Z,21.89
2018-10-18T14:22:24.335Z,21.87
2018-10-18T14:24:56.721Z,21.82
2018-10-18T14:27:29.556Z,21.79
2018-10-18T14:30:02.037Z,21.80
2018-10-18T14:32:34.326Z,21.81
2018-10-18T14:35:08.281Z,21.85
2018-10-18T14:37:40.712Z,21.95
2018-10-18T14:40:13.041Z,21.90
2018-10-18T14:42:45.418Z,21.91
2018-10-18T14:45:17.804Z,21.87
2018-10-18T14:47:50.247Z,21.93
2018-10-18T14:50:23.024Z,21.85
2018-10-18T14:52:55.280Z,21.88
2018-10-18T14:55:27.623Z,21.88
2018-10-18T14:58:00.011Z,21.78
2018-10-18T15:00:32.306Z,21.69
2018-10-18T15:03:04.953Z,21.53
2018-10-18T15:05:37.353Z,21.58
2018-10-18T15:08:09.669Z,21.61
2018-10-18T15:10:42.017Z,21.45
2018-10-18T15:13:14.517Z,21.46
2018-10-18T15:15:46.842Z,21.40
2018-10-18T15:18:19.138Z,21.36
2018-10-18T15:20:51.445Z,21.39
2018-10-18T15:23:23.890Z,21.32
2018-10-18T15:25:56.403Z,21.34
2018-10-18T15:28:28.707Z,21.21
2018-10-18T15:31:01.063Z,21.19
2018-10-18T15:33:33.400Z,21.06
2018-10-18T15:36:05.764Z,20.96
2018-10-18T15:38:38.304Z,20.97
2018-10-18T15:41:10.842Z,20.89
2018-10-18T15:43:43.216Z,20.85
2018-10-18T15:46:15.615Z,20.77
2018-10-18T15:48:47.955Z,20.70
2018-10-18T15:51:20.373Z,20.61
2018-10-18T15:53:52.721Z,20.57
2018-10-18T15:56:25.199Z,20.46
2018-10-18T15:58:57.644Z,20.36
2018-10-18T16:01:29.996Z,20.27
2018-10-18T16:04:02.494Z,20.22
2018-10-18T16:06:34.989Z,20.13
2018-10-18T16:09:09.261Z,20.04
2018-10-18T16:11:42.004Z,19.96
2018-10-18T16:14:14.733Z,19.92
2018-10-18T16:16:47.129Z,19.90
2018-10-18T16:19:19.545Z,19.82
2018-10-18T16:21:52.066Z,19.85
2018-10-18T16:24:24.575Z,19.71
2018-10-18T16:26:56.797Z,19.63
2018-10-18T16:29:29.111Z,19.53
2018-10-18T16:32:01.711Z,19.58
2018-10-18T16:34:34.103Z,19.41
2018-10-18T16:37:06.528Z,19.32
2018-10-18T16:39:39.071Z,19.22
2018-10-18T16:42:11.679Z,19.13
2018-10-18T16:44:44.173Z,19.11
2018-10-18T16:47:16.498Z,19.00
2018-10-18T16:49:48.935Z,18.96
2018-10-18T16:52:21.283Z,18.95
2018-10-18T16:54:53.638Z,18.87
2018-10-18T16:57:26.009Z,18.86
2018-10-18T16:59:58.359Z,18.75
2018-10-18T17:02:30.740Z,18.73
2018-10-18T17:05:03.168Z,18.69
2018-10-18T17:07:35.832Z,18.62
2018-10-18T17:10:08.242Z,18.55
2018-10-18T17:12:40.493Z,18.52
2018-10-18T17:15:12.987Z,18.43
2018-10-18T17:17:45.565Z,18.30
2018-10-18T17:20:18.145Z,18.38
2018-10-18T17:22:50.401Z,18.29
2018-10-18T17:25:22.776Z,18.20
2018-10-18T17:27:55.133Z,18.20
2018-10-18T17:30:27.551Z,18.14
2018-10-18T17:32:59.881Z,18.10
2018-10-18T17:35:32.217Z,18.11
2018-10-18T17:38:06.272Z,18.00
2018-10-18T17:40:38.593Z,17.89
2018-10-18T17:43:11.074Z,17.80
2018-10-18T17:45:43.412Z,17.81
2018-10-18T17:48:15.875Z,17.68
2018-10-18T17:50:48.374Z,17.64
2018-10-18T17:53:20.786Z,17.56
2018-10-18T17:55:53.119Z,17.56
2018-10-18T17:58:25.562Z,17.47
2018-10-18T18:00:58.049Z,17.43
2018-10-18T18:03:30.763Z,17.38
2018-10-18T18:06:03.303Z,17.35
2018-10-18T18:08:35.679Z,17.27
2018-10-18T18:11:08.081Z,17.23
2018-10-18T18:13:40.507Z,17.15
2018-10-18T18:16:12.943Z,17.09
2018-10-18T18:18:45.596Z,17.04
2018-10-18T18:21:17.996Z,17.01
2018-10-18T18:23:50.355Z,17.00
2018-10-18T18:26:32.447Z,16.94
2018-10-18T18:28:55.268Z,16.89
2018-10-18T18:31:27.691Z,16.83
2018-10-18T18:34:00.141Z,16.86
2018-10-18T18:36:32.670Z,16.77
2018-10-18T18:39:07.109Z,16.75
2018-10-18T18:41:40.697Z,16.73
2018-10-18T18:44:13.147Z,16.69
2018-10-18T18:46:45.607Z,16.61
2018-10-18T18:49:18.049Z,16.56
2018-10-18T18:51:50.472Z,16.45
2018-10-18T18:54:23.127Z,16.51
2018-10-18T18:56:55.523Z,16.34
2018-10-18T18:59:27.941Z,16.23
2018-10-18T19:02:00.283Z,16.15
2018-10-18T19:04:32.655Z,16.07
2018-10-18T19:07:05.074Z,15.98
2018-10-18T19:09:37.571Z,15.85
2018-10-18T19:12:10.014Z,15.73
2018-10-18T19:14:42.434Z,15.65
2018-10-18T19:17:14.748Z,15.53
2018-10-18T19:19:47.198Z,15.44
2018-10-18T19:22:19.782Z,15.41
2018-10-18T19:24:52.873Z,15.36
2018-10-18T19:27:25.296Z,15.27
2018-10-18T19:29:57.642Z,15.16
2018-10-18T19:32:30.089Z,15.13
2018-10-18T19:35:02.512Z,15.02
2018-10-18T19:37:35.224Z,14.92
2018-10-18T19:40:08.218Z,14.91
2018-10-18T19:42:40.608Z,14.80
2018-10-18T19:45:13.006Z,14.76
2018-10-18T19:47:45.595Z,14.72
2018-10-18T19:50:18.102Z,14.67
2018-10-18T19:52:50.539Z,14.58
2018-10-18T19:55:22.974Z,14.55
2018-10-18T19:57:55.659Z,14.46
2018-10-18T20:00:28.230Z,14.44
2018-10-18T20:03:00.557Z,14.40
2018-10-18T20:05:32.921Z,14.35
2018-10-18T20:08:05.476Z,14.30
2018-10-18T20:10:37.846Z,14.23
2018-10-18T20:13:10.519Z,14.18
2018-10-18T20:15:42.932Z,14.20
2018-10-18T20:18:15.434Z,14.15
2018-10-18T20:20:47.682Z,14.17
2018-10-18T20:23:20.001Z,14.16
2018-10-18T20:25:52.803Z,14.07
2018-10-18T20:28:25.021Z,14.01
2018-10-18T20:30:57.367Z,14.00
2018-10-18T20:33:29.692Z,13.91
2018-10-18T20:36:02.177Z,13.81
2018-10-18T20:38:34.662Z,13.69
2018-10-18T20:41:07.086Z,13.69
2018-10-18T20:43:39.539Z,13.62
2018-10-18T20:46:11.882Z,13.69
2018-10-18T20:48:44.231Z,13.59
2018-10-18T20:51:16.596Z,13.46
2018-10-18T20:53:48.935Z,13.41
2018-10-18T20:56:21.245Z,13.35
2018-10-18T20:58:53.562Z,13.35
2018-10-18T21:01:25.870Z,13.33
2018-10-18T21:03:58.178Z,13.24
2018-10-18T21:06:30.763Z,13.19
2018-10-18T21:09:03.802Z,13.17
2018-10-18T21:11:36.197Z,13.14
2018-10-18T21:14:08.466Z,13.06
2018-10-18T21:16:40.789Z,13.02
2018-10-18T21:19:13.046Z,12.88
2018-10-18T21:21:45.402Z,12.86
2018-10-18T21:24:17.721Z,12.78
2018-10-18T21:26:50.224Z,12.73
2018-10-18T21:29:22.518Z,12.67
2018-10-18T21:31:54.933Z,12.67
2018-10-18T21:34:27.269Z,12.65
2018-10-18T21:36:59.598Z,12.65
2018-10-18T21:39:33.166Z,12.64
2018-10-18T21:42:05.509Z,12.66
2018-10-18T21:44:37.932Z,12.61
2018-10-18T21:47:11.121Z,12.60
2018-10-18T21:49:43.546Z,12.65
2018-10-18T21:52:16.006Z,12.60
2018-10-18T21:54:48.294Z,12.57
2018-10-18T21:57:20.690Z,12.52
2018-10-18T21:59:52.999Z,12.54
2018-10-18T22:02:25.335Z,12.52
2018-10-18T22:04:57.630Z,12.42
2018-10-18T22:07:29.901Z,12.41
2018-10-18T22:10:02.253Z,12.39
2018-10-18T22:12:34.747Z,12.37
2018-10-18T22:15:08.640Z,12.31
2018-10-18T22:17:41.063Z,12.32
2018-10-18T22:20:13.369Z,12.25
2018-10-18T22:22:45.686Z,12.21
2018-10-18T22:25:18.028Z,12.16
2018-10-18T22:27:50.361Z,12.12
2018-10-18T22:30:22.677Z,12.12
2018-10-18T22:32:55.081Z,12.08
2018-10-18T22:35:27.346Z,12.10
2018-10-18T22:37:59.686Z,11.92
2018-10-18T22:40:32.023Z,11.88
2018-10-18T22:43:04.649Z,11.73
2018-10-18T22:45:36.970Z,11.68
2018-10-18T22:48:09.285Z,11.67
2018-10-18T22:50:41.708Z,11.70
2018-10-18T22:53:14.222Z,11.72
2018-10-18T22:55:46.413Z,11.72
2018-10-18T22:58:18.734Z,11.71
2018-10-18T23:00:51.022Z,11.70
2018-10-18T23:03:23.329Z,11.68
2018-10-18T23:05:55.604Z,11.71
2018-10-18T23:08:27.894Z,11.68
2018-10-18T23:11:00.236Z,11.64
2018-10-18T23:13:32.564Z,11.64
2018-10-18T23:16:04.937Z,11.68
2018-10-18T23:18:37.242Z,11.76
2018-10-18T23:21:09.657Z,11.85
2018-10-18T23:23:41.961Z,11.80
2018-10-18T23:26:14.214Z,11.83
2018-10-18T23:28:46.498Z,11.89
2018-10-18T23:31:18.943Z,11.94
2018-10-18T23:33:51.272Z,11.87
2018-10-18T23:36:23.809Z,11.91
2018-10-18T23:38:56.206Z,11.85
2018-10-18T23:41:28.484Z,11.93
2018-10-18T23:44:00.914Z,11.93
2018-10-18T23:46:33.365Z,11.83
2018-10-18T23:49:05.690Z,11.83
2018-10-18T23:51:38.013Z,11.82
2018-10-18T23:54:10.270Z,11.82
2018-10-18T23:56:42.598Z,11.77
2018-10-18T23:59:15.011Z,11.68
